createdAt,value
2019-02-17T00:00:37.636Z,46.79
2019-02-17T00:03:06.881Z,46.83
2019-02-17T00:05:35.936Z,46.80
2019-02-17T00:08:05.010Z,46.90
2019-02-17T00:10:34.096Z,46.95
2019-02-17T00:13:03.211Z,47.02
2019-02-17T00:15:32.294Z,47.15
2019-02-17T00:18:01.394Z,47.21
2019-02-17T00:20:30.506Z,47.24
2019-02-17T00:22:59.584Z,47.30
2019-02-17T00:25:28.788Z,47.30
2019-02-17T00:27:57.951Z,47.39
2019-02-17T00:30:27.068Z,47.53
2019-02-17T00:32:56.161Z,47.72
2019-02-17T00:35:25.274Z,47.91
2019-02-17T00:37:54.391Z,48.04
2019-02-17T00:40:23.495Z,48.01
2019-02-17T00:42:52.615Z,48.11
2019-02-17T00:45:21.737Z,48.15
2019-02-17T00:47:50.849Z,48.09
2019-02-17T00:50:20.084Z,48.09
2019-02-17T00:52:49.186Z,48.12
2019-02-17T00:55:18.419Z,48.17
2019-02-17T00:57:47.501Z,48.17
2019-02-17T01:00:16.700Z,48.18
2019-02-17T01:02:45.792Z,48.19
2019-02-17T01:05:14.929Z,48.22
2019-02-17T01:07:44.001Z,48.25
2019-02-17T01:10:13.157Z,48.29
2019-02-17T01:12:42.201Z,48.27
2019-02-17T01:15:11.349Z,48.37
2019-02-17T01:17:40.619Z,48.32
2019-02-17T01:20:10.020Z,48.30
2019-02-17T01:22:39.102Z,48.33
2019-02-17T01:25:08.443Z,48.39
2019-02-17T01:27:37.642Z,48.38
2019-02-17T01:30:07.283Z,48.38
2019-02-17T01:32:36.358Z,48.46
2019-02-17T01:35:05.618Z,48.56
2019-02-17T01:37:34.846Z,48.62
2019-02-17T01:40:04.391Z,48.64
2019-02-17T01:42:33.582Z,48.60
2019-02-17T01:45:02.759Z,48.55
2019-02-17T01:47:31.875Z,48.50
2019-02-17T01:50:00.942Z,48.58
2019-02-17T01:52:30.007Z,48.63
2019-02-17T01:54:59.092Z,48.63
2019-02-17T01:57:28.207Z,48.61
2019-02-17T01:59:57.331Z,48.68
2019-02-17T02:02:26.428Z,48.75
2019-02-17T02:04:55.520Z,48.83
2019-02-17T02:07:24.702Z,48.86
2019-02-17T02:09:53.783Z,48.90
2019-02-17T02:12:22.971Z,48.99
2019-02-17T02:14:52.048Z,49.05
2019-02-17T02:17:21.115Z,49.08
2019-02-17T02:19:50.208Z,49.16
2019-02-17T02:22:19.346Z,49.21
2019-02-17T02:24:48.467Z,49.25
2019-02-17T02:27:17.653Z,49.37
2019-02-17T02:29:46.839Z,49.40
2019-02-17T02:32:15.919Z,49.44
2019-02-17T02:34:45.051Z,49.50
2019-02-17T02:37:14.190Z,49.57
2019-02-17T02:39:43.264Z,49.56
2019-02-17T02:42:12.279Z,49.59
2019-02-17T02:44:41.377Z,49.62
2019-02-17T02:47:10.444Z,49.72
2019-02-17T02:49:39.541Z,49.73
2019-02-17T02:52:08.924Z,49.83
2019-02-17T02:54:38.114Z,49.91
2019-02-17T02:57:07.253Z,49.97
2019-02-17T02:59:36.349Z,50.05
2019-02-17T03:02:05.563Z,50.11
2019-02-17T03:04:34.618Z,50.17
2019-02-17T03:07:06.376Z,50.22
2019-02-17T09:57:01.594Z,16.18
2019-02-17T09:59:30.754Z,15.87
2019-02-17T10:01:59.995Z,15.18
2019-02-17T10:04:29.113Z,14.57
2019-02-17T10:06:58.282Z,14.45
2019-02-17T10:09:27.374Z,14.14
2019-02-17T10:11:56.403Z,13.78
2019-02-17T10:14:25.456Z,13.55
2019-02-17T10:16:54.520Z,13.14
2019-02-17T10:19:23.663Z,12.91
2019-02-17T10:21:52.721Z,12.47
2019-02-17T10:24:21.911Z,12.64
2019-02-17T10:26:50.995Z,12.74
2019-02-17T10:29:20.241Z,12.85
2019-02-17T10:31:49.403Z,12.82
2019-02-17T10:34:18.562Z,12.56
2019-02-17T10:36:47.987Z,12.03
2019-02-17T10:39:17.068Z,12.03
2019-02-17T10:41:46.216Z,11.50
2019-02-17T10:44:15.313Z,11.72
2019-02-17T10:46:44.511Z,11.77
2019-02-17T10:49:13.774Z,11.59
2019-02-17T10:51:42.863Z,11.42
2019-02-17T10:54:11.948Z,11.05
2019-02-17T10:56:41.241Z,10.79
2019-02-17T10:59:10.355Z,10.39
2019-02-17T11:01:40.817Z,10.24
2019-02-17T11:04:11.615Z,9.72
2019-02-17T11:06:40.771Z,9.35
2019-02-17T11:09:18.978Z,9.29
2019-02-17T11:11:48.187Z,9.42
2019-02-17T11:14:17.415Z,9.23
2019-02-17T11:16:46.998Z,9.45
2019-02-17T11:19:16.459Z,9.33
2019-02-17T11:21:45.672Z,9.10
2019-02-17T11:24:14.858Z,9.03
2019-02-17T11:26:44.029Z,8.96
2019-02-17T11:29:13.130Z,8.97
2019-02-17T11:31:42.238Z,8.96
2019-02-17T11:34:11.338Z,8.87
2019-02-17T11:36:40.533Z,8.20
2019-02-17T11:39:17.371Z,7.99
2019-02-17T11:41:46.492Z,8.18
2019-02-17T11:44:15.675Z,8.47
2019-02-17T11:46:44.824Z,8.57
2019-02-17T11:49:13.909Z,8.43
2019-02-17T11:51:43.046Z,7.76
2019-02-17T11:54:12.101Z,7.73
2019-02-17T11:56:41.234Z,7.29
2019-02-17T11:59:10.320Z,7.33
2019-02-17T12:01:39.517Z,7.27
2019-02-17T12:04:08.680Z,7.36
2019-02-17T12:06:37.775Z,7.40
2019-02-17T12:09:08.145Z,7.53
2019-02-17T12:11:37.337Z,7.35
2019-02-17T12:14:06.504Z,7.39
2019-02-17T12:16:37.268Z,7.55
2019-02-17T12:19:06.534Z,7.49
2019-02-17T12:21:41.105Z,7.38
2019-02-17T12:24:18.701Z,6.94
2019-02-17T12:27:09.913Z,6.63
2019-02-17T12:29:51.038Z,6.50
2019-02-17T12:32:22.844Z,6.51
2019-02-17T12:34:51.927Z,6.35
2019-02-17T12:37:21.046Z,6.03
2019-02-17T12:39:50.231Z,6.00
2019-02-17T12:42:19.737Z,6.21
2019-02-17T12:44:49.006Z,6.43
2019-02-17T12:47:18.191Z,6.75
2019-02-17T12:49:47.371Z,7.23
2019-02-17T12:52:16.602Z,8.06
2019-02-17T12:54:46.025Z,8.65
2019-02-17T12:57:15.111Z,9.72
2019-02-17T12:59:44.196Z,10.68
2019-02-17T13:02:13.342Z,11.54
2019-02-17T13:04:42.482Z,12.30
2019-02-17T13:07:11.688Z,13.26
2019-02-17T13:09:40.755Z,13.74
2019-02-17T13:12:09.846Z,14.22
2019-02-17T13:14:38.863Z,14.91
2019-02-17T13:17:08.026Z,15.48
2019-02-17T13:19:37.131Z,15.65
2019-02-17T13:22:06.211Z,16.11
2019-02-17T13:24:35.219Z,16.30
2019-02-17T13:27:04.314Z,16.79
2019-02-17T13:29:33.433Z,17.06
2019-02-17T13:32:02.573Z,17.40
2019-02-17T13:34:31.605Z,17.55
2019-02-17T13:37:00.731Z,17.54
2019-02-17T13:39:29.768Z,17.60
2019-02-17T13:41:58.861Z,17.77
2019-02-17T13:44:27.935Z,17.77
2019-02-17T13:46:57.026Z,17.94
2019-02-17T13:49:26.089Z,18.07
2019-02-17T13:51:55.375Z,18.32
2019-02-17T13:54:24.438Z,18.43
2019-02-17T13:56:53.551Z,18.50
2019-02-17T13:59:22.643Z,18.73
2019-02-17T14:01:52.249Z,18.91
2019-02-17T14:04:21.309Z,18.98
2019-02-17T14:06:51.759Z,19.14
2019-02-17T14:09:20.958Z,19.19
2019-02-17T14:11:50.004Z,19.23
2019-02-17T14:14:19.060Z,19.30
2019-02-17T14:16:48.173Z,19.31
2019-02-17T14:19:17.258Z,19.39
2019-02-17T14:21:46.334Z,19.37
2019-02-17T14:24:15.415Z,19.67
2019-02-17T14:26:44.537Z,19.72
2019-02-17T14:29:13.623Z,19.67
2019-02-17T14:31:42.698Z,19.96
2019-02-17T14:34:11.807Z,20.08
2019-02-17T14:36:40.903Z,19.93
2019-02-17T14:39:09.908Z,19.91
2019-02-17T14:41:38.963Z,19.94
2019-02-17T14:44:08.021Z,20.20
2019-02-17T14:46:37.067Z,20.28
2019-02-17T14:49:06.221Z,20.35
2019-02-17T14:51:35.242Z,20.51
2019-02-17T14:54:06.566Z,20.54
2019-02-17T14:56:35.138Z,20.49
2019-02-17T14:59:04.214Z,20.55
2019-02-17T15:01:33.272Z,20.81
2019-02-17T15:04:08.818Z,20.99
2019-02-17T15:06:33.120Z,21.03
2019-02-17T15:09:02.184Z,21.19
2019-02-17T15:11:31.195Z,21.22
2019-02-17T15:14:00.232Z,21.28
2019-02-17T15:16:29.289Z,21.33
2019-02-17T15:18:58.357Z,21.47
2019-02-17T15:21:27.370Z,21.59
2019-02-17T15:23:56.436Z,21.59
2019-02-17T15:26:25.483Z,21.59
2019-02-17T15:28:54.551Z,21.53
2019-02-17T15:31:23.621Z,21.61
2019-02-17T15:33:52.684Z,21.68
2019-02-17T15:36:21.711Z,21.63
2019-02-17T15:38:50.819Z,21.63
2019-02-17T15:41:19.880Z,21.69
2019-02-17T15:43:48.973Z,21.71
2019-02-17T15:46:17.963Z,21.75
2019-02-17T15:48:47.007Z,21.71
2019-02-17T15:51:16.124Z,21.77
2019-02-17T15:53:45.249Z,21.72
2019-02-17T15:56:14.330Z,21.71
2019-02-17T15:58:44.975Z,21.81
2019-02-17T16:01:14.172Z,21.76
2019-02-17T16:03:44.946Z,21.82
2019-02-17T16:06:14.462Z,22.05
2019-02-17T16:08:43.496Z,22.18
2019-02-17T16:11:12.573Z,22.22
2019-02-17T16:13:41.735Z,22.41
2019-02-17T16:16:10.715Z,22.43
2019-02-17T16:18:39.769Z,22.71
2019-02-17T16:21:08.851Z,22.86
2019-02-17T16:23:37.873Z,22.98
2019-02-17T16:26:06.881Z,23.12
2019-02-17T16:28:35.969Z,23.32
2019-02-17T16:31:05.102Z,23.48
2019-02-17T16:33:34.155Z,23.74
2019-02-17T16:36:03.291Z,24.07
2019-02-17T16:38:32.524Z,24.17
2019-02-17T16:41:01.610Z,24.51
2019-02-17T16:43:30.687Z,24.54
2019-02-17T16:45:59.774Z,24.76
2019-02-17T16:48:28.865Z,24.87
2019-02-17T16:50:57.909Z,25.08
2019-02-17T16:53:26.952Z,25.23
2019-02-17T16:55:56.002Z,25.48
2019-02-17T16:58:25.083Z,25.66
2019-02-17T17:00:54.119Z,25.84
2019-02-17T17:03:23.289Z,25.89
2019-02-17T17:05:52.319Z,26.04
2019-02-17T17:08:21.387Z,26.14
2019-02-17T17:10:50.514Z,26.39
2019-02-17T17:13:19.570Z,26.47
2019-02-17T17:15:48.647Z,26.61
2019-02-17T17:18:17.786Z,26.85
2019-02-17T17:20:46.999Z,26.78
2019-02-17T17:23:16.100Z,26.89
2019-02-17T17:25:45.196Z,27.09
2019-02-17T17:28:14.398Z,27.12
2019-02-17T17:30:43.385Z,27.26
2019-02-17T17:33:12.610Z,27.28
2019-02-17T17:35:41.633Z,27.36
2019-02-17T17:38:10.708Z,27.46
2019-02-17T17:40:39.747Z,27.53
2019-02-17T17:43:08.804Z,27.69
2019-02-17T17:45:37.865Z,27.71
2019-02-17T17:48:06.918Z,27.88
2019-02-17T17:50:35.969Z,27.96
2019-02-17T17:53:05.042Z,28.04
2019-02-17T17:55:34.184Z,28.24
2019-02-17T17:58:03.192Z,28.33
2019-02-17T18:00:33.649Z,28.40
2019-02-17T18:03:02.693Z,28.54
2019-02-17T18:05:31.800Z,28.49
2019-02-17T18:08:00.872Z,28.59
2019-02-17T18:10:30.004Z,28.52
2019-02-17T18:12:59.005Z,28.57
2019-02-17T18:15:28.036Z,28.63
2019-02-17T18:17:57.096Z,28.74
2019-02-17T18:20:26.171Z,28.79
2019-02-17T18:22:55.236Z,28.84
2019-02-17T18:25:24.297Z,29.04
2019-02-17T18:27:53.359Z,28.94
2019-02-17T18:30:22.574Z,29.01
2019-02-17T18:32:51.657Z,28.99
2019-02-17T18:35:20.955Z,29.07
2019-02-17T18:37:50.025Z,29.08
2019-02-17T18:40:19.150Z,29.09
2019-02-17T18:42:48.207Z,29.08
2019-02-17T18:45:17.245Z,29.20
2019-02-17T18:47:46.420Z,29.39
2019-02-17T18:50:15.492Z,29.44
2019-02-17T18:52:44.524Z,29.49
2019-02-17T18:55:13.666Z,29.68
2019-02-17T18:57:49.422Z,29.74
2019-02-17T19:00:14.609Z,29.72
2019-02-17T19:02:43.657Z,29.84
2019-02-17T19:05:13.582Z,30.02
2019-02-17T19:07:43.397Z,30.02
2019-02-17T19:10:12.903Z,30.07
2019-02-17T19:12:42.105Z,30.28
2019-02-17T19:15:12.318Z,30.52
2019-02-17T19:17:41.340Z,30.43
2019-02-17T19:20:12.397Z,30.50
2019-02-17T19:22:41.524Z,30.56
2019-02-17T19:25:10.661Z,30.73
2019-02-17T19:27:39.729Z,30.78
2019-02-17T19:30:09.711Z,30.81
2019-02-17T19:32:38.761Z,30.87
2019-02-17T19:35:10.080Z,30.89
2019-02-17T19:37:39.994Z,30.79
2019-02-17T19:40:10.555Z,30.83
2019-02-17T19:42:39.671Z,30.85
2019-02-17T19:45:09.771Z,30.84
2019-02-17T19:47:39.030Z,30.93
2019-02-17T19:50:09.401Z,30.90
2019-02-17T19:52:38.694Z,30.98
2019-02-17T19:55:07.979Z,30.88
2019-02-17T19:57:37.181Z,30.89
2019-02-17T20:00:06.945Z,30.74
2019-02-17T20:02:47.638Z,30.74
2019-02-17T20:05:18.664Z,30.80
2019-02-17T20:07:47.724Z,30.80
2019-02-17T20:10:16.758Z,30.75
2019-02-17T20:12:45.819Z,30.71
2019-02-17T20:15:15.036Z,30.73
2019-02-17T20:17:44.315Z,30.74
2019-02-17T20:20:13.506Z,30.79
2019-02-17T20:22:42.638Z,30.84
2019-02-17T20:25:11.729Z,30.74
2019-02-17T20:27:40.793Z,30.68
2019-02-17T20:30:10.356Z,30.60
2019-02-17T20:32:39.453Z,30.51
2019-02-17T20:35:08.545Z,30.48
2019-02-17T20:37:37.681Z,30.51
2019-02-17T20:40:07.350Z,30.46
2019-02-17T20:42:36.511Z,30.37
2019-02-17T20:45:05.907Z,30.29
2019-02-17T20:47:34.982Z,30.28
2019-02-17T20:50:04.247Z,30.32
2019-02-17T20:52:33.355Z,30.39
2019-02-17T20:55:02.387Z,30.51
2019-02-17T20:57:31.524Z,30.50
2019-02-17T21:00:00.644Z,30.44
2019-02-17T21:02:29.741Z,30.52
2019-02-17T21:04:58.836Z,30.52
2019-02-17T21:07:27.930Z,30.58
2019-02-17T21:09:57.011Z,30.54
2019-02-17T21:12:26.150Z,30.62
2019-02-17T21:14:55.209Z,30.61
2019-02-17T21:17:24.313Z,30.68
2019-02-17T21:19:53.349Z,30.72
2019-02-17T21:22:22.402Z,30.79
2019-02-17T21:24:51.561Z,30.81
2019-02-17T21:27:20.652Z,30.95
2019-02-17T21:29:49.730Z,31.11
2019-02-17T21:32:18.895Z,31.18
2019-02-17T21:34:47.974Z,31.28
2019-02-17T21:37:17.031Z,31.23
2019-02-17T21:39:46.274Z,31.35
2019-02-17T21:42:15.349Z,31.33
2019-02-17T21:44:44.392Z,31.36
2019-02-17T21:47:13.446Z,31.42
2019-02-17T21:49:42.553Z,31.58
2019-02-17T21:52:11.636Z,31.64
2019-02-17T21:54:40.694Z,31.66
2019-02-17T21:57:09.785Z,31.81
2019-02-17T21:59:38.826Z,31.84
2019-02-17T22:02:07.873Z,31.86
2019-02-17T22:04:36.951Z,31.89
2019-02-17T22:07:06.054Z,32.06
2019-02-17T22:09:35.095Z,32.02
2019-02-17T22:12:04.203Z,32.13
2019-02-17T22:14:33.222Z,32.13
2019-02-17T22:17:02.273Z,32.31
2019-02-17T22:19:31.351Z,32.63
2019-02-17T22:22:00.386Z,32.59
2019-02-17T22:24:29.419Z,32.63
2019-02-17T22:26:58.514Z,32.71
2019-02-17T22:29:27.610Z,32.76
2019-02-17T22:31:56.599Z,32.93
2019-02-17T22:34:25.705Z,33.07
2019-02-17T22:36:54.980Z,33.18
2019-02-17T22:39:24.044Z,33.36
2019-02-17T22:42:01.959Z,33.46
2019-02-17T22:44:31.077Z,33.43
2019-02-17T22:47:00.138Z,33.40
2019-02-17T22:49:29.185Z,33.58
2019-02-17T22:51:58.333Z,33.49
2019-02-17T22:54:27.409Z,33.52
2019-02-17T22:56:56.520Z,33.61
2019-02-17T22:59:25.652Z,33.62
2019-02-17T23:01:54.795Z,33.79
2019-02-17T23:04:23.917Z,33.87
2019-02-17T23:06:54.395Z,34.00
2019-02-17T23:09:23.957Z,34.07
2019-02-17T23:11:52.996Z,34.24
2019-02-17T23:14:22.178Z,34.34
2019-02-17T23:16:51.198Z,34.40
2019-02-17T23:19:20.329Z,34.53
2019-02-17T23:21:49.615Z,34.78
2019-02-17T23:24:18.792Z,34.83
2019-02-17T23:26:49.898Z,35.07
2019-02-17T23:29:18.903Z,35.29
2019-02-17T23:31:47.979Z,35.62
2019-02-17T23:34:17.051Z,35.80
2019-02-17T23:36:46.087Z,35.80
2019-02-17T23:39:15.158Z,35.87
2019-02-17T23:41:44.295Z,36.45
2019-02-17T23:44:13.381Z,36.49
2019-02-17T23:46:42.626Z,36.65
2019-02-17T23:49:11.700Z,36.88
2019-02-17T23:51:40.906Z,36.86
2019-02-17T23:54:10.014Z,36.73
2019-02-17T23:56:39.397Z,36.85
2019-02-17T23:59:08.527Z,37.10
